sensor_id;sensor_type;location;lat;lon;timestamp;pressure;altitude;pressure_sealevel;temperature;humidity
76847;BME280;65813;49.546;8.644;2024-03-23T04:48:28;99613.88;;;11.41;81.98
76847;BME280;65813;49.546;8.644;2024-03-23T04:52:29;99620.34;;;11.48;81.21
76847;BME280;65813;49.546;8.644;2024-03-23T04:56:30;99626.78;;;11.55;79.34
76847;BME280;65813;49.546;8.644;2024-03-23T05:00:31;99628.47;;;11.56;80.14
76847;BME280;65813;49.546;8.644;2024-03-23T05:04:31;99627.78;;;11.54;78.89
76847;BME280;65813;49.546;8.644;2024-03-23T05:08:32;99625.78;;;11.46;79.40
76847;BME280;65813;49.546;8.644;2024-03-23T05:12:32;99630.56;;;11.43;79.30
76847;BME280;65813;49.546;8.644;2024-03-23T05:16:33;99633.78;;;11.37;79.45
76847;BME280;65813;49.546;8.644;2024-03-23T05:20:33;99641.88;;;11.26;80.67
76847;BME280;65813;49.546;8.644;2024-03-23T05:24:34;99696.06;;;10.75;85.81
76847;BME280;65813;49.546;8.644;2024-03-23T05:28:34;99746.47;;;9.92;90.64
76847;BME280;65813;49.546;8.644;2024-03-23T05:32:35;99756.53;;;9.55;91.46
76847;BME280;65813;49.546;8.644;2024-03-23T05:36:35;99756.78;;;9.19;92.47
76847;BME280;65813;49.546;8.644;2024-03-23T05:40:36;99765.22;;;9.13;92.17
76847;BME280;65813;49.546;8.644;2024-03-23T05:44:40;99767.59;;;8.94;92.22
76847;BME280;65813;49.546;8.644;2024-03-23T05:48:40;99781.91;;;8.80;90.48
76847;BME280;65813;49.546;8.644;2024-03-23T05:52:40;99787.69;;;8.74;90.19
76847;BME280;65813;49.546;8.644;2024-03-23T05:56:42;99806.09;;;8.88;89.75
76847;BME280;65813;49.546;8.644;2024-03-23T06:00:43;99825.19;;;8.70;89.84
76847;BME280;65813;49.546;8.644;2024-03-23T06:04:45;99835.97;;;8.68;89.13
76847;BME280;65813;49.546;8.644;2024-03-23T06:08:45;99853.34;;;8.72;88.98
76847;BME280;65813;49.546;8.644;2024-03-23T06:12:46;99871.94;;;8.72;88.73
76847;BME280;65813;49.546;8.644;2024-03-23T06:16:46;99871.31;;;8.69;87.72
76847;BME280;65813;49.546;8.644;2024-03-23T06:20:47;99870.25;;;8.71;87.40
76847;BME280;65813;49.546;8.644;2024-03-23T06:24:48;99896.22;;;8.79;87.03
76847;BME280;65813;49.546;8.644;2024-03-23T06:28:48;99908.03;;;8.75;86.48
76847;BME280;65813;49.546;8.644;2024-03-23T06:32:48;99925.47;;;8.66;86.08
76847;BME280;65813;49.546;8.644;2024-03-23T06:36:48;99905.53;;;8.60;87.81
76847;BME280;65813;49.546;8.644;2024-03-23T06:40:49;99910.00;;;8.60;85.05
76847;BME280;65813;49.546;8.644;2024-03-23T06:44:50;99920.53;;;8.49;83.48
76847;BME280;65813;49.546;8.644;2024-03-23T06:48:51;99929.03;;;8.54;84.21
76847;BME280;65813;49.546;8.644;2024-03-23T06:52:51;99920.25;;;8.41;82.58
76847;BME280;65813;49.546;8.644;2024-03-23T06:56:51;99950.81;;;8.46;81.41
76847;BME280;65813;49.546;8.644;2024-03-23T07:00:52;99976.06;;;8.52;81.41
76847;BME280;65813;49.546;8.644;2024-03-23T07:04:52;99970.75;;;8.52;80.39
76847;BME280;65813;49.546;8.644;2024-03-23T07:08:53;99984.78;;;8.54;80.65
76847;BME280;65813;49.546;8.644;2024-03-23T07:12:53;99990.81;;;8.56;80.71
76847;BME280;65813;49.546;8.644;2024-03-23T07:16:53;100008.03;;;8.38;80.02
76847;BME280;65813;49.546;8.644;2024-03-23T07:20:57;100024.41;;;8.44;79.49
76847;BME280;65813;49.546;8.644;2024-03-23T07:25:00;100025.47;;;8.29;80.52
76847;BME280;65813;49.546;8.644;2024-03-23T07:29:01;100032.75;;;8.26;80.36
76847;BME280;65813;49.546;8.644;2024-03-23T07:33:02;100045.16;;;8.25;80.59
76847;BME280;65813;49.546;8.644;2024-03-23T07:37:02;100054.84;;;8.13;78.87
76847;BME280;65813;49.546;8.644;2024-03-23T07:41:04;100064.19;;;8.06;77.71
76847;BME280;65813;49.546;8.644;2024-03-23T07:45:05;100080.69;;;7.97;77.94
76847;BME280;65813;49.546;8.644;2024-03-23T07:49:05;100088.84;;;7.94;78.15
76847;BME280;65813;49.546;8.644;2024-03-23T07:53:06;100107.22;;;7.97;77.01
76847;BME280;65813;49.546;8.644;2024-03-23T07:57:06;100120.16;;;7.89;77.09
76847;BME280;65813;49.546;8.644;2024-03-23T08:01:11;100115.59;;;7.91;77.57
76847;BME280;65813;49.546;8.644;2024-03-23T08:05:12;100136.16;;;7.88;78.23
76847;BME280;65813;49.546;8.644;2024-03-23T08:09:12;100134.56;;;7.85;77.96
76847;BME280;65813;49.546;8.644;2024-03-23T08:13:12;100137.00;;;7.88;77.88
76847;BME280;65813;49.546;8.644;2024-03-23T08:17:13;100144.34;;;7.97;78.66
76847;BME280;65813;49.546;8.644;2024-03-23T08:21:13;100153.06;;;7.99;79.07
76847;BME280;65813;49.546;8.644;2024-03-23T08:25:14;100170.66;;;8.00;78.53
76847;BME280;65813;49.546;8.644;2024-03-23T08:29:14;100177.69;;;8.01;78.76
76847;BME280;65813;49.546;8.644;2024-03-23T08:33:15;100174.41;;;8.10;78.60
76847;BME280;65813;49.546;8.644;2024-03-23T08:37:15;100178.34;;;8.18;77.47
76847;BME280;65813;49.546;8.644;2024-03-23T08:41:15;100173.75;;;8.34;76.81
76847;BME280;65813;49.546;8.644;2024-03-23T08:45:16;100177.75;;;8.27;76.54
76847;BME280;65813;49.546;8.644;2024-03-23T08:49:16;100179.09;;;8.46;76.87
76847;BME280;65813;49.546;8.644;2024-03-23T08:53:18;100183.97;;;8.52;73.21
76847;BME280;65813;49.546;8.644;2024-03-23T08:57:18;100182.38;;;9.00;73.73
76847;BME280;65813;49.546;8.644;2024-03-23T09:01:19;100184.19;;;8.87;72.42
76847;BME280;65813;49.546;8.644;2024-03-23T09:05:19;100195.25;;;8.81;71.40
76847;BME280;65813;49.546;8.644;2024-03-23T09:09:19;100201.94;;;8.74;70.39
76847;BME280;65813;49.546;8.644;2024-03-23T09:13:20;100202.38;;;8.68;69.79
76847;BME280;65813;49.546;8.644;2024-03-23T09:17:20;100211.19;;;8.69;67.83
76847;BME280;65813;49.546;8.644;2024-03-23T09:21:20;100231.03;;;8.76;68.66
76847;BME280;65813;49.546;8.644;2024-03-23T09:25:21;100220.41;;;8.76;68.05
76847;BME280;65813;49.546;8.644;2024-03-23T09:29:21;100215.00;;;8.90;69.07
76847;BME280;65813;49.546;8.644;2024-03-23T09:33:21;100208.44;;;8.95;67.61
76847;BME280;65813;49.546;8.644;2024-03-23T09:37:21;100221.59;;;8.97;65.75
76847;BME280;65813;49.546;8.644;2024-03-23T09:41:22;100208.31;;;8.97;65.08
76847;BME280;65813;49.546;8.644;2024-03-23T09:45:27;100207.25;;;8.99;64.75
76847;BME280;65813;49.546;8.644;2024-03-23T09:49:27;100202.03;;;9.10;65.59
76847;BME280;65813;49.546;8.644;2024-03-23T09:53:27;100214.38;;;9.11;65.73
76847;BME280;65813;49.546;8.644;2024-03-23T09:57:28;100199.28;;;9.12;64.31
76847;BME280;65813;49.546;8.644;2024-03-23T10:01:31;100199.47;;;9.22;63.11
76847;BME280;65813;49.546;8.644;2024-03-23T10:05:32;100194.16;;;9.22;62.94
76847;BME280;65813;49.546;8.644;2024-03-23T10:09:35;100193.47;;;9.43;63.27
76847;BME280;65813;49.546;8.644;2024-03-23T10:13:36;100183.06;;;9.40;61.59
76847;BME280;65813;49.546;8.644;2024-03-23T10:17:39;100189.28;;;9.52;60.90
76847;BME280;65813;49.546;8.644;2024-03-23T10:21:39;100182.59;;;9.83;61.73
76847;BME280;65813;49.546;8.644;2024-03-23T10:25:39;100179.38;;;9.67;59.06
76847;BME280;65813;49.546;8.644;2024-03-23T10:29:40;100183.44;;;9.59;59.85
76847;BME280;65813;49.546;8.644;2024-03-23T10:33:44;100187.66;;;9.62;57.11
76847;BME280;65813;49.546;8.644;2024-03-23T10:37:45;100181.94;;;9.68;57.71
76847;BME280;65813;49.546;8.644;2024-03-23T10:41:53;100191.53;;;9.58;53.86
76847;BME280;65813;49.546;8.644;2024-03-23T10:45:55;100195.88;;;9.59;53.54
76847;BME280;65813;49.546;8.644;2024-03-23T10:49:56;100189.19;;;9.53;52.22
76847;BME280;65813;49.546;8.644;2024-03-23T10:53:56;100184.59;;;9.55;54.33
76847;BME280;65813;49.546;8.644;2024-03-23T10:57:57;100182.84;;;9.43;52.81
76847;BME280;65813;49.546;8.644;2024-03-23T11:02:00;100190.19;;;9.40;51.50
76847;BME280;65813;49.546;8.644;2024-03-23T11:06:06;100180.59;;;9.50;52.38
76847;BME280;65813;49.546;8.644;2024-03-23T11:10:28;100174.19;;;9.65;50.36
76847;BME280;65813;49.546;8.644;2024-03-23T11:14:32;100169.06;;;10.33;50.18
76847;BME280;65813;49.546;8.644;2024-03-23T11:18:32;100155.78;;;10.55;50.89
76847;BME280;65813;49.546;8.644;2024-03-23T11:22:46;100167.97;;;10.36;50.08
76847;BME280;65813;49.546;8.644;2024-03-23T11:26:51;100188.75;;;10.07;50.36
76847;BME280;65813;49.546;8.644;2024-03-23T11:30:52;100217.13;;;8.85;62.69
76847;BME280;65813;49.546;8.644;2024-03-23T11:34:52;100217.94;;;8.47;66.11
76847;BME280;65813;49.546;8.644;2024-03-23T11:38:52;100191.38;;;8.35;69.87
76847;BME280;65813;49.546;8.644;2024-03-23T11:42:57;100195.31;;;8.15;70.39
76847;BME280;65813;49.546;8.644;2024-03-23T11:47:08;100223.63;;;7.75;71.38
76847;BME280;65813;49.546;8.644;2024-03-23T11:51:11;100223.72;;;7.59;72.68
76847;BME280;65813;49.546;8.644;2024-03-23T11:55:12;100234.78;;;7.66;73.45
76847;BME280;65813;49.546;8.644;2024-03-23T11:59:12;100247.59;;;7.59;74.04
76847;BME280;65813;49.546;8.644;2024-03-23T12:03:30;100275.16;;;7.57;76.86
76847;BME280;65813;49.546;8.644;2024-03-23T12:07:32;100272.22;;;7.19;79.37
76847;BME280;65813;49.546;8.644;2024-03-23T12:11:32;100248.28;;;7.35;86.98
76847;BME280;65813;49.546;8.644;2024-03-23T12:15:32;100228.19;;;7.59;85.65
76847;BME280;65813;49.546;8.644;2024-03-23T12:19:33;100216.25;;;7.52;87.03
76847;BME280;65813;49.546;8.644;2024-03-23T12:23:34;100215.81;;;7.17;88.66
76847;BME280;65813;49.546;8.644;2024-03-23T12:27:34;100199.84;;;7.04;85.19
76847;BME280;65813;49.546;8.644;2024-03-23T12:31:34;100200.97;;;7.15;86.18
76847;BME280;65813;49.546;8.644;2024-03-23T12:35:35;100197.13;;;7.06;84.26
76847;BME280;65813;49.546;8.644;2024-03-23T12:39:35;100215.28;;;7.12;84.16
76847;BME280;65813;49.546;8.644;2024-03-23T12:43:36;100233.69;;;7.28;86.06
76847;BME280;65813;49.546;8.644;2024-03-23T12:47:37;100218.34;;;7.61;89.27
76847;BME280;65813;49.546;8.644;2024-03-23T12:51:38;100202.00;;;7.40;89.50
76847;BME280;65813;49.546;8.644;2024-03-23T12:55:39;100212.38;;;7.57;89.74
76847;BME280;65813;49.546;8.644;2024-03-23T12:59:39;100204.69;;;7.67;89.89
76847;BME280;65813;49.546;8.644;2024-03-23T13:03:39;100204.75;;;7.80;88.25
76847;BME280;65813;49.546;8.644;2024-03-23T13:07:41;100199.88;;;7.86;85.48
76847;BME280;65813;49.546;8.644;2024-03-23T13:11:41;100227.16;;;7.88;87.68
76847;BME280;65813;49.546;8.644;2024-03-23T13:15:41;100218.41;;;7.74;78.33
76847;BME280;65813;49.546;8.644;2024-03-23T13:19:42;100233.69;;;7.28;77.55
76847;BME280;65813;49.546;8.644;2024-03-23T13:23:42;100221.03;;;7.33;78.98
76847;BME280;65813;49.546;8.644;2024-03-23T13:27:45;100202.03;;;7.12;84.11
76847;BME280;65813;49.546;8.644;2024-03-23T13:31:46;100199.19;;;7.15;85.91
76847;BME280;65813;49.546;8.644;2024-03-23T13:35:53;100211.69;;;6.99;87.75
76847;BME280;65813;49.546;8.644;2024-03-23T13:39:54;100219.13;;;7.35;86.14
76847;BME280;65813;49.546;8.644;2024-03-23T13:43:54;100207.59;;;7.36;86.61
76847;BME280;65813;49.546;8.644;2024-03-23T13:47:55;100216.09;;;7.55;81.88
76847;BME280;65813;49.546;8.644;2024-03-23T13:51:56;100207.81;;;7.59;81.54
76847;BME280;65813;49.546;8.644;2024-03-23T13:55:58;100209.09;;;7.54;80.59
76847;BME280;65813;49.546;8.644;2024-03-23T13:59:58;100204.91;;;7.64;79.52
76847;BME280;65813;49.546;8.644;2024-03-23T14:03:59;100187.97;;;7.79;80.63
76847;BME280;65813;49.546;8.644;2024-03-23T14:07:59;100179.81;;;8.36;76.59
76847;BME280;65813;49.546;8.644;2024-03-23T14:11:59;100175.28;;;8.50;77.33
76847;BME280;65813;49.546;8.644;2024-03-23T14:16:01;100171.84;;;8.48;78.44
76847;BME280;65813;49.546;8.644;2024-03-23T14:20:01;100169.97;;;8.50;78.46
76847;BME280;65813;49.546;8.644;2024-03-23T14:24:02;100175.28;;;8.50;77.79
76847;BME280;65813;49.546;8.644;2024-03-23T14:28:03;100155.75;;;8.25;78.72
76847;BME280;65813;49.546;8.644;2024-03-23T14:32:03;100166.16;;;8.15;77.18
76847;BME280;65813;49.546;8.644;2024-03-23T14:36:04;100147.13;;;8.08;76.45
76847;BME280;65813;49.546;8.644;2024-03-23T14:40:05;100140.78;;;8.11;76.66
76847;BME280;65813;49.546;8.644;2024-03-23T14:44:06;100149.44;;;8.00;80.38
76847;BME280;65813;49.546;8.644;2024-03-23T14:48:07;100162.97;;;7.83;80.48
76847;BME280;65813;49.546;8.644;2024-03-23T14:52:07;100147.72;;;8.26;79.67
76847;BME280;65813;49.546;8.644;2024-03-23T14:56:09;100153.59;;;8.56;81.13
76847;BME280;65813;49.546;8.644;2024-03-23T15:00:15;100144.25;;;8.63;76.21
76847;BME280;65813;49.546;8.644;2024-03-23T15:04:16;100139.81;;;8.64;74.08
76847;BME280;65813;49.546;8.644;2024-03-23T15:08:17;100143.19;;;8.53;71.50
76847;BME280;65813;49.546;8.644;2024-03-23T15:12:17;100132.59;;;8.53;70.49
76847;BME280;65813;49.546;8.644;2024-03-23T15:16:17;100134.28;;;8.54;70.64
76847;BME280;65813;49.546;8.644;2024-03-23T15:20:20;100119.41;;;8.52;69.85
76847;BME280;65813;49.546;8.644;2024-03-23T15:24:20;100130.22;;;8.49;70.28
76847;BME280;65813;49.546;8.644;2024-03-23T15:28:22;100120.69;;;8.34;70.50
76847;BME280;65813;49.546;8.644;2024-03-23T15:32:23;100128.88;;;8.31;73.84
76847;BME280;65813;49.546;8.644;2024-03-23T15:36:23;100137.59;;;8.19;70.10
76847;BME280;65813;49.546;8.644;2024-03-23T15:40:23;100136.94;;;8.02;65.29
76847;BME280;65813;49.546;8.644;2024-03-23T15:44:24;100120.25;;;8.00;65.07
76847;BME280;65813;49.546;8.644;2024-03-23T15:48:33;100116.59;;;8.03;63.42
76847;BME280;65813;49.546;8.644;2024-03-23T15:52:38;100106.06;;;8.01;62.87
76847;BME280;65813;49.546;8.644;2024-03-23T15:56:42;100107.00;;;8.00;62.67
76847;BME280;65813;49.546;8.644;2024-03-23T16:00:55;100113.81;;;8.04;63.63
76847;BME280;65813;49.546;8.644;2024-03-23T16:04:59;100121.03;;;8.02;64.08
76847;BME280;65813;49.546;8.644;2024-03-23T16:09:03;100122.84;;;8.14;68.44
76847;BME280;65813;49.546;8.644;2024-03-23T16:13:03;100120.22;;;8.27;69.88
76847;BME280;65813;49.546;8.644;2024-03-23T16:17:03;100124.31;;;8.06;70.10
76847;BME280;65813;49.546;8.644;2024-03-23T16:21:05;100121.81;;;7.78;72.14
76847;BME280;65813;49.546;8.644;2024-03-23T16:25:05;100113.28;;;7.73;73.14
76847;BME280;65813;49.546;8.644;2024-03-23T16:29:09;100121.13;;;7.61;73.75
76847;BME280;65813;49.546;8.644;2024-03-23T16:33:10;100110.75;;;7.71;73.60
76847;BME280;65813;49.546;8.644;2024-03-23T16:37:10;100099.53;;;7.80;74.23
76847;BME280;65813;49.546;8.644;2024-03-23T16:41:12;100114.13;;;7.60;72.57
76847;BME280;65813;49.546;8.644;2024-03-23T16:45:18;100126.31;;;7.63;72.79
76847;BME280;65813;49.546;8.644;2024-03-23T16:49:18;100130.72;;;7.50;74.02
76847;BME280;65813;49.546;8.644;2024-03-23T16:53:19;100144.63;;;7.13;74.68
76847;BME280;65813;49.546;8.644;2024-03-23T16:57:19;100161.19;;;7.02;75.62
76847;BME280;65813;49.546;8.644;2024-03-23T17:01:20;100164.22;;;6.96;76.49
76847;BME280;65813;49.546;8.644;2024-03-23T17:05:20;100148.47;;;7.21;76.17
76847;BME280;65813;49.546;8.644;2024-03-23T17:09:22;100150.47;;;7.03;75.99
76847;BME280;65813;49.546;8.644;2024-03-23T17:13:23;100140.38;;;6.96;74.89
76847;BME280;65813;49.546;8.644;2024-03-23T17:17:23;100124.84;;;7.04;75.79
76847;BME280;65813;49.546;8.644;2024-03-23T17:21:23;100107.53;;;7.13;73.87
76847;BME280;65813;49.546;8.644;2024-03-23T17:25:24;100098.47;;;7.02;74.52
76847;BME280;65813;49.546;8.644;2024-03-23T17:29:24;100093.00;;;6.91;73.33
76847;BME280;65813;49.546;8.644;2024-03-23T17:33:24;100090.75;;;6.99;74.25
76847;BME280;65813;49.546;8.644;2024-03-23T17:37:25;100099.91;;;6.80;74.67
76847;BME280;65813;49.546;8.644;2024-03-23T17:41:25;100104.53;;;6.76;75.07
76847;BME280;65813;49.546;8.644;2024-03-23T17:45:29;100091.22;;;6.78;74.48
76847;BME280;65813;49.546;8.644;2024-03-23T17:49:29;100097.84;;;6.56;75.04
76847;BME280;65813;49.546;8.644;2024-03-23T17:53:29;100104.84;;;6.43;75.58
76847;BME280;65813;49.546;8.644;2024-03-23T17:57:30;100112.13;;;6.68;75.60
76847;BME280;65813;49.546;8.644;2024-03-23T18:01:30;100119.59;;;6.62;76.42
76847;BME280;65813;49.546;8.644;2024-03-23T18:05:31;100117.13;;;6.58;76.95
76847;BME280;65813;49.546;8.644;2024-03-23T18:09:31;100105.50;;;6.61;76.56
76847;BME280;65813;49.546;8.644;2024-03-23T18:13:32;100119.97;;;6.70;77.67
76847;BME280;65813;49.546;8.644;2024-03-23T18:17:32;100117.50;;;6.95;76.08
76847;BME280;65813;49.546;8.644;2024-03-23T18:21:34;100117.88;;;6.60;77.83
76847;BME280;65813;49.546;8.644;2024-03-23T18:25:34;100125.34;;;6.54;77.78
76847;BME280;65813;49.546;8.644;2024-03-23T18:29:35;100127.63;;;6.74;76.74
76847;BME280;65813;49.546;8.644;2024-03-23T18:33:39;100132.91;;;6.46;78.09
76847;BME280;65813;49.546;8.644;2024-03-23T18:37:41;100141.63;;;5.73;81.34
76847;BME280;65813;49.546;8.644;2024-03-23T18:41:41;100153.41;;;5.67;81.98
76847;BME280;65813;49.546;8.644;2024-03-23T18:45:46;100158.66;;;5.83;82.38
76847;BME280;65813;49.546;8.644;2024-03-23T18:49:46;100160.41;;;5.52;82.42
76847;BME280;65813;49.546;8.644;2024-03-23T18:53:47;100151.91;;;5.47;83.26
76847;BME280;65813;49.546;8.644;2024-03-23T18:57:47;100154.19;;;5.38;83.29
76847;BME280;65813;49.546;8.644;2024-03-23T19:01:48;100139.66;;;5.31;84.54
76847;BME280;65813;49.546;8.644;2024-03-23T19:05:58;100139.78;;;5.28;83.85
76847;BME280;65813;49.546;8.644;2024-03-23T19:09:59;100129.09;;;5.31;84.75
76847;BME280;65813;49.546;8.644;2024-03-23T19:13:59;100136.91;;;5.17;85.51
76847;BME280;65813;49.546;8.644;2024-03-23T19:18:00;100133.84;;;5.08;86.14
76847;BME280;65813;49.546;8.644;2024-03-23T19:22:01;100140.47;;;5.00;87.37
76847;BME280;65813;49.546;8.644;2024-03-23T19:26:01;100150.25;;;4.98;87.68
76847;BME280;65813;49.546;8.644;2024-03-23T19:30:03;100146.28;;;5.06;88.25
76847;BME280;65813;49.546;8.644;2024-03-23T19:34:04;100153.25;;;5.07;87.33
76847;BME280;65813;49.546;8.644;2024-03-23T19:38:04;100151.72;;;5.19;87.37
76847;BME280;65813;49.546;8.644;2024-03-23T19:42:05;100154.88;;;5.10;87.76
76847;BME280;65813;49.546;8.644;2024-03-23T19:46:05;100152.84;;;4.99;89.29
76847;BME280;65813;49.546;8.644;2024-03-23T19:50:06;100150.09;;;5.01;89.55
76847;BME280;65813;49.546;8.644;2024-03-23T19:54:10;100160.91;;;4.96;89.13
76847;BME280;65813;49.546;8.644;2024-03-23T19:58:11;100154.34;;;5.03;89.20
76847;BME280;65813;49.546;8.644;2024-03-23T20:02:11;100148.66;;;5.11;89.13
76847;BME280;65813;49.546;8.644;2024-03-23T20:06:15;100152.16;;;5.12;88.81
76847;BME280;65813;49.546;8.644;2024-03-23T20:10:15;100149.88;;;5.37;88.28
76847;BME280;65813;49.546;8.644;2024-03-23T20:14:16;100150.53;;;5.25;86.77
76847;BME280;65813;49.546;8.644;2024-03-23T20:18:16;100140.66;;;5.28;87.53
76847;BME280;65813;49.546;8.644;2024-03-23T20:22:16;100143.28;;;5.28;87.84
76847;BME280;65813;49.546;8.644;2024-03-23T20:26:17;100147.72;;;5.28;87.91
76847;BME280;65813;49.546;8.644;2024-03-23T20:30:17;100149.00;;;5.21;88.11
76847;BME280;65813;49.546;8.644;2024-03-23T20:34:18;100145.75;;;5.31;87.79
76847;BME280;65813;49.546;8.644;2024-03-23T20:38:21;100151.56;;;5.22;88.98
76847;BME280;65813;49.546;8.644;2024-03-23T20:42:22;100140.94;;;5.24;89.20
76847;BME280;65813;49.546;8.644;2024-03-23T20:46:22;100143.56;;;5.24;89.91
76847;BME280;65813;49.546;8.644;2024-03-23T20:50:23;100149.44;;;5.13;90.98
76847;BME280;65813;49.546;8.644;2024-03-23T20:54:24;100159.56;;;5.21;91.38
76847;BME280;65813;49.546;8.644;2024-03-23T20:58:26;100149.50;;;5.12;91.52
76847;BME280;65813;49.546;8.644;2024-03-23T21:02:27;100148.94;;;5.06;92.25
76847;BME280;65813;49.546;8.644;2024-03-23T21:06:27;100150.38;;;4.96;92.79
76847;BME280;65813;49.546;8.644;2024-03-23T21:10:27;100144.06;;;4.99;93.96
76847;BME280;65813;49.546;8.644;2024-03-23T21:14:28;100142.75;;;4.90;94.21
76847;BME280;65813;49.546;8.644;2024-03-23T21:18:29;100142.50;;;4.95;94.05
76847;BME280;65813;49.546;8.644;2024-03-23T21:22:29;100129.16;;;4.82;94.15
76847;BME280;65813;49.546;8.644;2024-03-23T21:26:31;100123.06;;;4.80;93.95
76847;BME280;65813;49.546;8.644;2024-03-23T21:30:32;100122.09;;;4.66;94.61
76847;BME280;65813;49.546;8.644;2024-03-23T21:34:32;100113.44;;;4.64;94.47
76847;BME280;65813;49.546;8.644;2024-03-23T21:38:33;100118.94;;;4.59;95.19
76847;BME280;65813;49.546;8.644;2024-03-23T21:42:33;100116.53;;;4.72;95.02
76847;BME280;65813;49.546;8.644;2024-03-23T21:46:33;100108.09;;;4.65;95.05
76847;BME280;65813;49.546;8.644;2024-03-23T21:50:34;100106.28;;;4.66;94.22
76847;BME280;65813;49.546;8.644;2024-03-23T21:54:34;100106.84;;;4.72;94.04
76847;BME280;65813;49.546;8.644;2024-03-23T21:58:35;100095.66;;;4.83;94.59
76847;BME280;65813;49.546;8.644;2024-03-23T22:02:35;100091.59;;;4.77;92.69
76847;BME280;65813;49.546;8.644;2024-03-23T22:06:37;100090.38;;;4.83;92.41
76847;BME280;65813;49.546;8.644;2024-03-23T22:10:37;100079.31;;;4.76;93.53
76847;BME280;65813;49.546;8.644;2024-03-23T22:14:42;100085.88;;;4.69;93.63
76847;BME280;65813;49.546;8.644;2024-03-23T22:18:43;100074.38;;;4.70;93.97
